Terminal Aerodrome Forecast
Issued by NWS

Current Version | Previous Version | Graphics & Text | Print | Product List | Glossary On
Versions: 1 2 3 4 5 6 7 8 9 10 11 12 13 14 15 16 17 18 19 20 21 22 23 24 25 26 27
000
FTUS41 KILN 231200 AAB
TAFLUK
TAF AMD
KLUK 231213Z 2312/2412 VRB03KT 2SM BR SKC
      TEMPO 2312/2313 1/4SM FG VV001
     FM231400 29004KT P6SM SCT250
     FM240300 00000KT P6SM BKN200
     FM240600 00000KT 3SM BR BKN200
      TEMPO 2408/2412 1/4SM FG VV002=

USA.gov is the U.S. government's official web portal to all federal, state and local government web resources and services.